createdAt,value
2019-05-09T00:01:57.707Z,45.60
2019-05-09T00:04:24.290Z,45.60
2019-05-09T00:06:50.516Z,46.00
2019-05-09T00:09:16.745Z,46.10
2019-05-09T00:11:43.983Z,45.90
2019-05-09T00:14:09.598Z,45.90
2019-05-09T00:16:35.837Z,45.80
2019-05-09T00:19:03.344Z,46.40
2019-05-09T00:21:28.697Z,45.50
2019-05-09T00:23:54.922Z,45.70
2019-05-09T00:26:23.404Z,45.80
2019-05-09T00:28:47.800Z,46.20
2019-05-09T00:31:14.434Z,45.70
2019-05-09T00:33:40.661Z,45.60
2019-05-09T00:36:06.888Z,45.40
2019-05-09T00:38:33.524Z,45.80
2019-05-09T00:40:59.744Z,45.80
2019-05-09T00:43:25.970Z,45.70
2019-05-09T00:45:54.145Z,45.90
2019-05-09T00:48:18.856Z,46.00
2019-05-09T00:50:45.083Z,46.10
2019-05-09T00:53:13.638Z,45.80
2019-05-09T00:55:38.104Z,45.60
2019-05-09T00:58:04.578Z,45.60
2019-05-09T01:00:33.221Z,45.70
2019-05-09T01:02:57.440Z,45.60
2019-05-09T01:05:24.038Z,45.40
2019-05-09T01:07:50.298Z,45.40
2019-05-09T01:10:16.520Z,45.60
2019-05-09T01:12:43.515Z,45.70
2019-05-09T01:15:09.399Z,45.30
2019-05-09T01:17:36.036Z,45.50
2019-05-09T01:20:03.466Z,45.70
2019-05-09T01:22:28.903Z,45.80
2019-05-09T01:24:55.129Z,45.60
2019-05-09T01:27:23.342Z,45.60
2019-05-09T01:29:48.381Z,45.70
2019-05-09T01:32:14.632Z,45.70
2019-05-09T01:34:40.858Z,45.70
2019-05-09T01:37:07.094Z,45.70
2019-05-09T01:39:33.784Z,45.60
2019-05-09T01:42:00.353Z,45.40
2019-05-09T01:44:26.586Z,45.70
2019-05-09T01:46:54.021Z,45.60
2019-05-09T01:49:19.455Z,45.40
2019-05-09T01:51:45.682Z,45.80
2019-05-09T01:54:13.238Z,45.90
2019-05-09T01:56:38.179Z,45.70
2019-05-09T01:59:04.778Z,45.50
2019-05-09T02:01:30.999Z,45.80
2019-05-09T02:03:57.230Z,45.90
2019-05-09T02:06:24.420Z,45.90
2019-05-09T02:08:50.096Z,45.50
2019-05-09T02:11:16.349Z,45.60
2019-05-09T02:13:44.205Z,45.50
2019-05-09T02:16:10.015Z,45.40
2019-05-09T02:18:36.653Z,45.50
2019-05-09T02:21:03.993Z,45.40
2019-05-09T02:23:29.508Z,45.70
2019-05-09T02:25:55.740Z,45.40
2019-05-09T02:28:23.491Z,45.50
2019-05-09T02:30:49.010Z,45.70
2019-05-09T02:33:15.238Z,45.40
2019-05-09T02:35:51.767Z,45.50
2019-05-09T02:38:09.469Z,45.50
2019-05-09T02:40:34.744Z,45.30
2019-05-09T02:43:01.384Z,45.40
2019-05-09T02:45:28.477Z,45.40
2019-05-09T02:47:54.655Z,45.50
2019-05-09T02:50:20.898Z,45.50
2019-05-09T02:52:48.669Z,45.40
2019-05-09T02:55:13.754Z,45.40
2019-05-09T02:57:40.028Z,45.40
2019-05-09T03:00:08.662Z,45.60
2019-05-09T03:02:33.247Z,45.80
2019-05-09T03:04:59.886Z,45.50
2019-05-09T03:07:28.807Z,45.30
2019-05-09T03:09:52.754Z,45.40
2019-05-09T03:12:30.420Z,45.30
2019-05-09T03:14:48.548Z,45.20
2019-05-09T03:17:12.650Z,45.30
2019-05-09T03:19:38.929Z,45.30
2019-05-09T03:22:08.577Z,45.30
2019-05-09T03:24:32.165Z,45.30
2019-05-09T03:26:59.485Z,45.20
2019-05-09T03:29:25.022Z,45.20
2019-05-09T03:31:51.270Z,45.20
2019-05-09T03:34:19.507Z,45.10
2019-05-09T03:36:44.537Z,45.20
2019-05-09T03:39:10.769Z,45.20
2019-05-09T03:41:39.350Z,45.20
2019-05-09T03:44:03.678Z,45.10
2019-05-09T03:46:30.265Z,45.10
2019-05-09T03:48:58.306Z,45.10
2019-05-09T03:51:23.541Z,45.30
2019-05-09T03:53:49.760Z,45.40
2019-05-09T03:56:18.054Z,45.20
2019-05-09T03:58:47.570Z,45.10
2019-05-09T04:01:14.181Z,45.10
2019-05-09T04:03:40.397Z,45.00
2019-05-09T04:06:08.293Z,45.10
2019-05-09T04:08:33.279Z,45.00
2019-05-09T04:10:59.488Z,45.00
2019-05-09T04:13:28.142Z,45.10
2019-05-09T04:15:52.369Z,45.00
2019-05-09T04:18:18.608Z,45.30
2019-05-09T04:20:45.223Z,45.10
2019-05-09T04:23:11.456Z,45.10
2019-05-09T04:25:37.723Z,45.20
2019-05-09T04:28:04.321Z,45.10
2019-05-09T04:30:30.553Z,45.20
2019-05-09T04:32:58.156Z,45.40
2019-05-09T04:35:23.433Z,45.10
2019-05-09T04:37:49.640Z,45.20
2019-05-09T04:40:17.840Z,45.40
2019-05-09T04:42:44.401Z,45.40
2019-05-09T04:45:10.241Z,45.20
2019-05-09T04:47:39.483Z,45.10
2019-05-09T04:50:02.427Z,45.40
2019-05-09T04:52:28.660Z,45.30
2019-05-09T04:54:54.890Z,45.20
2019-05-09T04:57:21.114Z,44.90
2019-05-09T04:59:47.639Z,44.90
2019-05-09T05:02:13.985Z,45.00
2019-05-09T05:04:40.202Z,44.70
2019-05-09T05:07:07.624Z,44.90
2019-05-09T05:09:33.100Z,45.00
2019-05-09T05:11:59.728Z,45.10
2019-05-09T05:14:27.997Z,45.00
2019-05-09T05:16:54.584Z,45.00
2019-05-09T05:19:19.210Z,45.10
2019-05-09T05:21:45.438Z,45.30
2019-05-09T05:24:11.669Z,45.20
2019-05-09T05:26:38.183Z,45.40
2019-05-09T05:29:04.572Z,45.90
2019-05-09T05:31:31.160Z,45.00
2019-05-09T05:33:57.864Z,44.90
2019-05-09T05:36:24.035Z,44.80
2019-05-09T05:38:50.242Z,44.80
2019-05-09T05:41:18.265Z,44.80
2019-05-09T05:43:44.713Z,44.80
2019-05-09T05:46:09.786Z,44.70
2019-05-09T05:48:38.334Z,44.60
2019-05-09T05:51:03.045Z,44.70
2019-05-09T05:53:29.685Z,44.70
2019-05-09T05:55:57.864Z,44.60
2019-05-09T05:58:22.539Z,44.50
2019-05-09T06:00:48.766Z,44.70
2019-05-09T06:03:17.664Z,44.60
2019-05-09T06:05:42.037Z,44.50
2019-05-09T06:08:08.420Z,44.50
2019-05-09T06:10:34.905Z,44.60
2019-05-09T06:13:01.134Z,44.70
2019-05-09T06:15:28.853Z,44.60
2019-05-09T06:17:54.422Z,44.70
2019-05-09T06:20:21.051Z,44.70
2019-05-09T06:22:47.807Z,44.60
2019-05-09T06:25:13.918Z,44.60
2019-05-09T06:27:42.278Z,44.60
2019-05-09T06:30:08.598Z,44.70
2019-05-09T06:32:33.820Z,44.80
2019-05-09T06:35:00.062Z,44.60
2019-05-09T06:37:27.680Z,45.30
2019-05-09T06:39:52.933Z,44.50
2019-05-09T06:42:19.585Z,44.60
2019-05-09T06:44:47.951Z,44.60
2019-05-09T06:47:12.842Z,44.70
2019-05-09T06:49:39.477Z,44.60
2019-05-09T06:52:05.713Z,44.60
2019-05-09T06:54:32.340Z,44.60
2019-05-09T06:56:58.662Z,44.70
2019-05-09T06:59:25.204Z,44.60
2019-05-09T07:01:51.435Z,44.50
2019-05-09T07:04:18.355Z,44.50
2019-05-09T07:06:43.951Z,44.60
2019-05-09T07:09:10.526Z,44.70
2019-05-09T07:11:38.121Z,44.70
2019-05-09T07:14:03.419Z,44.70
2019-05-09T07:16:30.033Z,44.80
2019-05-09T07:18:57.939Z,44.70
2019-05-09T07:21:22.893Z,44.80
2019-05-09T07:23:49.116Z,44.80
2019-05-09T07:26:17.393Z,44.70
2019-05-09T07:28:41.997Z,44.90
2019-05-09T07:31:11.542Z,44.80
2019-05-09T07:33:35.262Z,44.90
2019-05-09T07:36:01.928Z,44.90
2019-05-09T07:38:28.540Z,44.90
2019-05-09T07:40:55.163Z,44.70
2019-05-09T07:43:21.410Z,44.70
2019-05-09T07:45:47.665Z,44.80
2019-05-09T07:48:14.249Z,44.60
2019-05-09T07:50:40.492Z,44.70
2019-05-09T07:53:08.831Z,44.70
2019-05-09T07:55:33.052Z,44.70
2019-05-09T07:58:01.323Z,44.70
2019-05-09T08:00:27.852Z,44.70
2019-05-09T08:02:54.096Z,44.80
2019-05-09T08:05:20.333Z,44.70
2019-05-09T08:07:48.541Z,44.90
2019-05-09T08:10:13.206Z,44.90
2019-05-09T08:12:39.820Z,44.80
2019-05-09T08:15:13.759Z,44.70
2019-05-09T08:17:32.689Z,44.70
2019-05-09T08:19:58.912Z,44.70
2019-05-09T08:22:26.195Z,44.70
2019-05-09T08:24:51.783Z,44.70
2019-05-09T08:27:18.417Z,44.70
2019-05-09T08:29:44.634Z,44.80
2019-05-09T08:32:10.897Z,44.80
2019-05-09T08:34:37.938Z,44.70
2019-05-09T08:37:04.144Z,44.80
2019-05-09T08:39:30.414Z,44.80
2019-05-09T08:41:59.327Z,44.90
2019-05-09T08:44:23.653Z,44.90
2019-05-09T08:46:49.915Z,44.90
2019-05-09T08:49:18.251Z,44.90
2019-05-09T08:51:55.721Z,45.00
2019-05-09T08:54:09.789Z,45.00
2019-05-09T08:56:38.562Z,44.90
2019-05-09T08:59:02.648Z,44.90
2019-05-09T09:01:47.710Z,44.90
2019-05-09T09:03:57.505Z,44.80
2019-05-09T09:06:22.170Z,44.80
2019-05-09T09:08:48.780Z,44.80
2019-05-09T09:11:14.977Z,44.80
2019-05-09T09:13:41.188Z,44.80
2019-05-09T09:16:15.779Z,44.80
2019-05-09T09:18:34.050Z,45.20
2019-05-09T09:21:00.274Z,44.80
2019-05-09T09:23:40.706Z,44.90
2019-05-09T09:25:53.982Z,45.00
2019-05-09T09:28:21.415Z,44.90
2019-05-09T09:30:48.414Z,44.90
2019-05-09T09:33:14.065Z,44.80
2019-05-09T09:35:40.094Z,44.90
2019-05-09T09:38:06.313Z,45.00
2019-05-09T09:40:32.545Z,44.90
2019-05-09T09:42:58.814Z,44.90
2019-05-09T09:45:27.723Z,44.80
2019-05-09T09:47:51.229Z,44.80
2019-05-09T09:50:17.839Z,44.80
2019-05-09T09:52:43.692Z,44.90
2019-05-09T09:55:09.908Z,44.90
2019-05-09T09:57:37.734Z,45.00
2019-05-09T10:00:02.383Z,45.00
2019-05-09T10:02:28.602Z,44.90
2019-05-09T10:04:54.828Z,44.90
2019-05-09T10:07:21.047Z,44.90
2019-05-09T10:09:47.982Z,44.90
2019-05-09T10:12:13.510Z,44.90
2019-05-09T10:14:39.732Z,44.90
2019-05-09T10:17:10.128Z,44.90
2019-05-09T10:19:32.604Z,44.90
2019-05-09T10:21:58.858Z,44.80
2019-05-09T10:24:25.060Z,44.80
2019-05-09T10:26:51.291Z,44.80
2019-05-09T10:29:17.784Z,45.30
2019-05-09T10:31:43.752Z,44.70
2019-05-09T10:34:11.145Z,44.80
2019-05-09T10:36:38.402Z,44.80
2019-05-09T10:39:02.428Z,44.80
2019-05-09T10:41:28.642Z,44.90
2019-05-09T10:43:54.862Z,44.80
2019-05-09T10:46:21.084Z,44.80
2019-05-09T10:48:47.912Z,44.80
2019-05-09T10:51:13.582Z,44.90
2019-05-09T10:53:39.788Z,44.90
2019-05-09T10:56:08.613Z,44.90
2019-05-09T10:58:32.230Z,44.80
2019-05-09T11:00:58.870Z,44.90
2019-05-09T11:03:24.684Z,45.00
2019-05-09T11:05:50.902Z,44.90
2019-05-09T11:08:18.472Z,44.90
2019-05-09T11:10:43.381Z,45.30
2019-05-09T11:13:09.563Z,44.90
2019-05-09T11:15:37.490Z,44.90
2019-05-09T11:18:02.201Z,44.90
2019-05-09T11:20:28.683Z,44.90
2019-05-09T11:22:54.900Z,44.90
2019-05-09T11:25:21.120Z,44.90
2019-05-09T11:27:48.723Z,44.80
2019-05-09T11:30:13.585Z,44.90
2019-05-09T11:32:39.830Z,44.80
2019-05-09T11:35:08.793Z,44.90
2019-05-09T11:37:32.278Z,44.80
2019-05-09T11:39:58.520Z,44.80
2019-05-09T11:42:24.741Z,44.80
2019-05-09T11:44:50.971Z,44.70
2019-05-09T11:47:32.176Z,44.80
2019-05-09T11:49:43.424Z,44.80
2019-05-09T11:52:09.597Z,44.80
2019-05-09T11:54:35.866Z,44.80
2019-05-09T11:57:02.093Z,44.80
2019-05-09T11:59:28.326Z,44.80
2019-05-09T12:01:54.570Z,44.80
2019-05-09T12:04:20.766Z,44.80
2019-05-09T12:06:49.102Z,44.60
2019-05-09T12:09:14.753Z,44.70
2019-05-09T12:11:44.227Z,44.80
2019-05-09T12:14:05.688Z,44.80
2019-05-09T12:16:31.902Z,44.80
2019-05-09T12:18:58.742Z,44.70
2019-05-09T12:21:25.189Z,44.80
2019-05-09T12:23:51.415Z,44.80
2019-05-09T12:26:17.966Z,44.70
2019-05-09T12:28:43.863Z,44.90
2019-05-09T12:31:10.084Z,44.70
2019-05-09T12:33:36.332Z,44.70
2019-05-09T12:36:02.545Z,44.80
2019-05-09T12:38:29.585Z,44.70
2019-05-09T12:41:00.296Z,44.70
2019-05-09T12:43:22.041Z,44.70
2019-05-09T12:45:48.269Z,44.80
2019-05-09T12:48:15.833Z,44.80
2019-05-09T12:50:40.723Z,44.80
2019-05-09T12:53:06.951Z,44.70
2019-05-09T12:55:33.184Z,44.70
2019-05-09T12:57:59.641Z,44.70
2019-05-09T13:00:25.624Z,44.80
2019-05-09T13:02:51.864Z,44.70
2019-05-09T13:05:18.299Z,44.80
2019-05-09T13:07:44.333Z,44.80
2019-05-09T13:10:10.535Z,44.70
2019-05-09T13:12:38.774Z,44.60
2019-05-09T13:15:03.014Z,44.70
2019-05-09T13:17:29.241Z,44.70
2019-05-09T13:19:55.456Z,44.60
2019-05-09T13:22:21.677Z,44.70
2019-05-09T13:24:47.912Z,44.70
2019-05-09T13:27:14.153Z,44.70
2019-05-09T13:29:40.837Z,44.70
2019-05-09T13:32:08.790Z,44.70
2019-05-09T13:34:33.228Z,44.70
2019-05-09T13:36:59.463Z,44.60
2019-05-09T13:39:27.841Z,44.70
2019-05-09T13:41:51.912Z,44.70
2019-05-09T13:44:18.374Z,44.60
2019-05-09T13:46:44.365Z,44.60
2019-05-09T13:49:14.815Z,44.60
2019-05-09T13:51:47.243Z,44.60
2019-05-09T13:54:03.465Z,44.60
2019-05-09T13:56:29.687Z,44.60
2019-05-09T13:58:58.094Z,44.60
2019-05-09T14:01:22.140Z,44.60
2019-05-09T14:03:49.147Z,44.60
2019-05-09T14:06:15.010Z,44.60
2019-05-09T14:08:41.224Z,44.60
2019-05-09T14:11:08.373Z,44.60
2019-05-09T14:13:33.681Z,44.70
2019-05-09T14:16:14.422Z,44.60
2019-05-09T14:18:26.140Z,44.70
2019-05-09T14:20:52.374Z,44.60
2019-05-09T14:23:19.413Z,44.60
2019-05-09T14:25:51.073Z,44.50
2019-05-09T14:28:11.466Z,44.60
2019-05-09T14:30:39.021Z,44.60
2019-05-09T14:33:03.919Z,44.60
2019-05-09T14:35:30.159Z,44.60
2019-05-09T14:37:58.912Z,44.50
2019-05-09T14:40:22.604Z,44.60
2019-05-09T14:42:49.463Z,44.60
2019-05-09T14:45:15.064Z,44.60
2019-05-09T14:47:42.493Z,44.70
2019-05-09T14:50:09.814Z,44.60
2019-05-09T14:52:33.743Z,44.60
2019-05-09T14:54:59.969Z,44.60
2019-05-09T14:57:28.450Z,44.60
2019-05-09T14:59:52.436Z,44.60
2019-05-09T15:02:18.659Z,44.60
2019-05-09T15:04:44.885Z,44.50
2019-05-09T15:07:11.122Z,44.70
2019-05-09T15:09:37.332Z,44.70
2019-05-09T15:12:03.570Z,44.60
2019-05-09T15:14:29.801Z,44.70
2019-05-09T15:16:57.522Z,44.50
2019-05-09T15:19:22.252Z,44.50
2019-05-09T15:21:48.933Z,44.50
2019-05-09T15:24:14.720Z,44.50
2019-05-09T15:26:40.909Z,44.60
2019-05-09T15:29:08.043Z,44.50
2019-05-09T15:31:33.413Z,44.50
2019-05-09T15:33:59.612Z,44.50
2019-05-09T15:36:25.862Z,44.50
2019-05-09T15:38:52.084Z,44.60
2019-05-09T15:41:18.520Z,44.60
2019-05-09T15:43:44.864Z,44.60
2019-05-09T15:46:11.039Z,44.50
2019-05-09T15:48:38.078Z,44.50
2019-05-09T15:51:03.638Z,44.50
2019-05-09T15:53:29.857Z,44.50
2019-05-09T15:55:58.623Z,44.60
2019-05-09T15:58:22.332Z,44.60
2019-05-09T16:00:48.969Z,44.60
2019-05-09T16:03:15.180Z,44.60
2019-05-09T16:05:41.406Z,44.50
2019-05-09T16:08:09.153Z,44.60
2019-05-09T16:10:33.873Z,44.50
2019-05-09T16:13:00.089Z,44.50
2019-05-09T16:15:28.656Z,44.50
2019-05-09T16:17:52.547Z,44.50
2019-05-09T16:20:36.075Z,44.40
2019-05-09T16:22:45.011Z,44.50
2019-05-09T16:25:11.239Z,44.40
2019-05-09T16:27:38.058Z,44.40
2019-05-09T16:30:03.681Z,44.40
2019-05-09T16:32:29.927Z,44.30
2019-05-09T16:34:56.076Z,44.40
2019-05-09T16:37:22.371Z,44.40
2019-05-09T16:39:48.602Z,44.40
2019-05-09T16:42:14.838Z,44.30
2019-05-09T16:44:41.857Z,44.40
2019-05-09T16:47:08.330Z,44.30
2019-05-09T16:49:33.517Z,44.30
2019-05-09T16:51:59.744Z,44.50
2019-05-09T16:54:28.271Z,44.60
2019-05-09T16:56:52.188Z,44.50
2019-05-09T16:59:18.453Z,44.50
2019-05-09T17:01:49.265Z,44.30
2019-05-09T17:04:10.890Z,44.50
2019-05-09T17:06:38.161Z,44.60
2019-05-09T17:09:03.352Z,44.60
2019-05-09T17:11:29.569Z,44.60
2019-05-09T17:13:58.168Z,44.60
2019-05-09T17:16:22.047Z,44.60
2019-05-09T17:18:48.696Z,44.70
2019-05-09T17:21:18.811Z,44.60
2019-05-09T17:23:40.712Z,44.60
2019-05-09T17:26:08.305Z,44.60
2019-05-09T17:28:33.176Z,44.60
2019-05-09T17:30:59.410Z,44.60
2019-05-09T17:33:28.424Z,44.60
2019-05-09T17:35:51.856Z,44.60
2019-05-09T17:38:18.261Z,44.60
2019-05-09T17:40:44.327Z,44.60
2019-05-09T17:43:10.547Z,44.50
2019-05-09T17:45:39.535Z,44.50
2019-05-09T17:48:03.409Z,44.50
2019-05-09T17:50:29.632Z,44.60
2019-05-09T17:52:57.823Z,44.60
2019-05-09T17:55:22.097Z,44.60
2019-05-09T17:57:48.323Z,44.60
2019-05-09T18:00:14.536Z,44.60
2019-05-09T18:02:40.774Z,44.60
2019-05-09T18:05:07.803Z,44.60
2019-05-09T18:07:33.375Z,44.60
2019-05-09T18:09:59.612Z,44.60
2019-05-09T18:12:27.734Z,44.60
2019-05-09T18:14:52.468Z,44.60
2019-05-09T18:17:18.700Z,44.50
2019-05-09T18:19:44.859Z,44.60
2019-05-09T18:22:11.162Z,44.60
2019-05-09T18:24:37.775Z,44.60
2019-05-09T18:27:03.605Z,44.60
2019-05-09T18:29:29.844Z,44.60
2019-05-09T18:31:58.351Z,44.60
2019-05-09T18:34:22.706Z,44.60
2019-05-09T18:36:48.927Z,44.60
2019-05-09T18:39:15.157Z,44.60
2019-05-09T18:41:41.392Z,44.60
2019-05-09T18:44:07.613Z,44.60
2019-05-09T18:46:33.878Z,44.60
2019-05-09T18:49:00.069Z,44.60
2019-05-09T18:51:28.584Z,44.50
2019-05-09T18:53:52.524Z,45.20
2019-05-09T18:56:18.765Z,44.30
2019-05-09T18:58:44.937Z,44.60
2019-05-09T19:01:11.211Z,44.60
2019-05-09T19:03:37.462Z,44.60
2019-05-09T19:06:04.894Z,44.60
2019-05-09T19:08:32.772Z,44.60
2019-05-09T19:10:58.988Z,44.60
2019-05-09T19:13:25.229Z,44.60
2019-05-09T19:15:51.461Z,44.60
2019-05-09T19:18:17.695Z,44.60
2019-05-09T19:20:44.313Z,44.60
2019-05-09T19:23:10.554Z,44.50
2019-05-09T19:25:36.838Z,44.60
2019-05-09T19:28:03.002Z,44.70
2019-05-09T19:30:29.231Z,44.60
2019-05-09T19:32:55.448Z,44.60
2019-05-09T19:35:21.679Z,44.60
2019-05-09T19:37:47.937Z,44.60
2019-05-09T19:40:19.612Z,44.60
2019-05-09T19:42:40.378Z,44.60
2019-05-09T19:45:06.600Z,44.60
2019-05-09T19:47:32.920Z,44.60
2019-05-09T19:49:59.464Z,44.60
2019-05-09T19:52:37.921Z,44.60
2019-05-09T19:54:51.926Z,44.60
2019-05-09T19:57:18.149Z,44.60
2019-05-09T19:59:44.377Z,44.60
2019-05-09T20:02:10.612Z,44.60
2019-05-09T20:04:36.841Z,44.60
2019-05-09T20:07:03.061Z,44.70
2019-05-09T20:09:29.305Z,44.70
2019-05-09T20:11:55.521Z,44.60
2019-05-09T20:14:21.745Z,44.60
2019-05-09T20:16:47.981Z,44.70
2019-05-09T20:19:14.226Z,44.70
2019-05-09T20:21:40.454Z,44.70
2019-05-09T20:24:09.228Z,44.80
2019-05-09T20:26:33.330Z,44.70
2019-05-09T20:29:00.764Z,44.50
2019-05-09T20:31:27.389Z,44.80
2019-05-09T20:33:53.619Z,44.90
2019-05-09T20:36:19.882Z,44.90
2019-05-09T20:38:46.081Z,45.10
2019-05-09T20:41:12.308Z,45.00
2019-05-09T20:43:38.540Z,45.20
2019-05-09T20:46:04.765Z,45.10
2019-05-09T20:48:31.062Z,45.30
2019-05-09T20:50:57.216Z,45.20
2019-05-09T20:53:23.458Z,45.10
2019-05-09T20:55:49.683Z,45.20
2019-05-09T20:58:15.919Z,45.20
2019-05-09T21:00:42.133Z,45.10
2019-05-09T21:03:08.437Z,45.40
2019-05-09T21:05:34.601Z,45.20
2019-05-09T21:08:00.841Z,45.30
2019-05-09T21:10:28.295Z,45.30
2019-05-09T21:12:54.509Z,45.30
2019-05-09T21:15:20.735Z,45.30
2019-05-09T21:17:46.973Z,45.30
2019-05-09T21:20:13.192Z,45.40
2019-05-09T21:22:39.420Z,45.40
2019-05-09T21:25:05.652Z,45.60
2019-05-09T21:27:31.882Z,45.50
2019-05-09T21:29:58.112Z,45.50
2019-05-09T21:32:24.355Z,45.30
2019-05-09T21:34:50.568Z,45.30
2019-05-09T21:37:16.792Z,45.40
2019-05-09T21:39:43.021Z,45.40
2019-05-09T21:42:09.252Z,45.30
2019-05-09T21:44:35.482Z,45.40
2019-05-09T21:47:01.646Z,45.50
2019-05-09T21:49:27.939Z,45.40
2019-05-09T21:51:54.165Z,45.40
2019-05-09T21:54:20.409Z,45.40
2019-05-09T21:56:46.625Z,45.50
2019-05-09T21:59:12.856Z,45.80
2019-05-09T22:01:39.081Z,45.60
2019-05-09T22:04:05.337Z,45.60
2019-05-09T22:06:31.536Z,45.60
2019-05-09T22:08:57.684Z,45.50
2019-05-09T22:11:23.996Z,45.60
2019-05-09T22:13:50.228Z,45.60
2019-05-09T22:16:16.444Z,45.60
2019-05-09T22:18:42.687Z,45.60
2019-05-09T22:21:08.909Z,45.60
2019-05-09T22:23:35.143Z,45.80
2019-05-09T22:26:01.373Z,45.60
2019-05-09T22:28:27.593Z,45.60
2019-05-09T22:30:53.820Z,45.70
2019-05-09T22:33:20.051Z,45.70
2019-05-09T22:35:46.284Z,45.70
2019-05-09T22:38:12.516Z,45.70
2019-05-09T22:40:38.759Z,45.80
2019-05-09T22:43:06.220Z,45.80
2019-05-09T22:45:32.438Z,45.80
2019-05-09T22:47:58.658Z,45.80
2019-05-09T22:50:24.893Z,45.90
2019-05-09T22:52:51.115Z,45.80
2019-05-09T22:55:17.744Z,45.80
2019-05-09T22:57:43.992Z,45.80
2019-05-09T23:00:10.201Z,45.80
2019-05-09T23:02:36.424Z,45.80
2019-05-09T23:05:02.661Z,45.80
2019-05-09T23:07:28.912Z,45.80
2019-05-09T23:09:55.113Z,46.00
2019-05-09T23:12:21.344Z,46.10
2019-05-09T23:14:47.576Z,46.00
2019-05-09T23:17:14.177Z,46.10
2019-05-09T23:19:40.450Z,46.00
2019-05-09T23:22:06.665Z,46.00
2019-05-09T23:24:32.888Z,46.10
2019-05-09T23:26:59.128Z,46.10
2019-05-09T23:29:25.337Z,46.20
2019-05-09T23:31:51.587Z,46.10
2019-05-09T23:34:17.818Z,46.20
2019-05-09T23:36:44.053Z,46.20
2019-05-09T23:39:10.266Z,46.20
2019-05-09T23:41:36.521Z,46.20
2019-05-09T23:44:03.953Z,46.40
2019-05-09T23:46:30.187Z,46.30
2019-05-09T23:48:56.424Z,46.30
2019-05-09T23:51:22.640Z,46.30
2019-05-09T23:53:48.874Z,46.30
2019-05-09T23:56:15.108Z,46.30
2019-05-09T23:58:41.328Z,46.30
